createdAt,value
2019-02-19T00:00:20.301Z,3.50
2019-02-19T00:01:26.391Z,4.35
2019-02-19T00:02:30.873Z,4.37
2019-02-19T00:03:35.330Z,2.90
2019-02-19T00:04:39.795Z,3.85
2019-02-19T00:05:44.354Z,2.87
2019-02-19T00:06:48.816Z,3.90
2019-02-19T00:07:53.315Z,5.30
2019-02-19T00:08:57.853Z,4.17
2019-02-19T00:10:02.464Z,4.83
2019-02-19T00:11:06.933Z,5.45
2019-02-19T00:12:11.473Z,3.62
2019-02-19T00:13:15.925Z,4.28
2019-02-19T00:14:20.388Z,5.15
2019-02-19T00:15:24.903Z,5.10
2019-02-19T00:16:29.361Z,5.95
2019-02-19T00:17:33.824Z,3.83
2019-02-19T00:18:38.334Z,5.57
2019-02-19T00:19:42.902Z,6.00
2019-02-19T00:20:47.397Z,3.90
2019-02-19T00:21:51.871Z,3.40
2019-02-19T00:22:56.333Z,5.87
2019-02-19T00:24:00.798Z,4.67
2019-02-19T00:25:06.331Z,3.63
2019-02-19T00:26:17.471Z,3.83
2019-02-19T00:27:21.952Z,6.28
2019-02-19T00:28:26.526Z,4.93
2019-02-19T00:29:31.168Z,3.87
2019-02-19T00:30:35.667Z,5.47
2019-02-19T00:31:40.164Z,3.70
2019-02-19T00:32:44.635Z,5.57
2019-02-19T00:33:49.105Z,5.50
2019-02-19T00:34:53.571Z,5.30
2019-02-19T00:35:58.062Z,4.55
2019-02-19T00:37:02.853Z,5.17
2019-02-19T00:38:07.345Z,4.45
2019-02-19T00:39:11.879Z,4.25
2019-02-19T00:40:16.453Z,4.85
2019-02-19T00:41:20.933Z,4.00
2019-02-19T00:42:25.387Z,3.95
2019-02-19T00:43:31.988Z,4.37
2019-02-19T00:44:36.460Z,5.50
2019-02-19T00:45:40.965Z,3.80
2019-02-19T00:46:45.439Z,4.37
2019-02-19T00:47:49.984Z,4.42
2019-02-19T00:48:54.467Z,5.65
2019-02-19T00:49:58.935Z,4.30
2019-02-19T00:51:03.490Z,4.47
2019-02-19T00:52:07.951Z,6.75
2019-02-19T00:53:12.401Z,3.43
2019-02-19T00:54:16.882Z,4.40
2019-02-19T00:55:21.359Z,6.13
2019-02-19T00:56:26.123Z,4.23
2019-02-19T00:57:30.603Z,3.60
2019-02-19T00:58:35.079Z,4.65
2019-02-19T00:59:39.552Z,4.33
2019-02-19T01:00:44.087Z,3.63
2019-02-19T01:01:48.585Z,5.50
2019-02-19T01:02:53.054Z,5.23
2019-02-19T01:03:57.554Z,4.40
2019-02-19T01:05:02.043Z,5.97
2019-02-19T01:06:06.586Z,4.12
2019-02-19T01:07:11.079Z,4.30
2019-02-19T01:08:15.573Z,4.45
2019-02-19T01:09:20.577Z,4.17
2019-02-19T01:10:25.121Z,4.67
2019-02-19T01:11:29.611Z,4.20
2019-02-19T01:12:34.107Z,4.20
2019-02-19T01:13:38.551Z,4.17
2019-02-19T01:14:43.019Z,4.20
2019-02-19T01:15:47.486Z,4.90
2019-02-19T01:16:52.018Z,3.58
2019-02-19T01:17:56.487Z,5.40
2019-02-19T01:19:00.968Z,4.70
2019-02-19T01:20:09.607Z,5.60
2019-02-19T01:21:14.073Z,3.43
2019-02-19T01:22:18.545Z,5.93
2019-02-19T01:23:23.031Z,4.13
2019-02-19T01:24:27.501Z,3.67
2019-02-19T01:25:31.970Z,4.47
2019-02-19T01:26:36.441Z,3.92
2019-02-19T01:27:40.901Z,4.43
2019-02-19T01:28:45.370Z,3.50
2019-02-19T01:29:49.852Z,3.93
2019-02-19T01:30:54.321Z,3.90
2019-02-19T01:31:58.862Z,3.73
2019-02-19T01:33:03.344Z,5.67
2019-02-19T01:34:07.810Z,3.83
2019-02-19T01:35:12.316Z,4.43
2019-02-19T01:36:16.820Z,3.90
2019-02-19T01:37:21.310Z,3.73
2019-02-19T01:38:25.768Z,3.87
2019-02-19T01:39:30.232Z,3.60
2019-02-19T01:40:34.714Z,4.20
2019-02-19T01:41:39.190Z,4.03
2019-02-19T01:42:43.746Z,4.15
2019-02-19T01:43:48.273Z,3.15
2019-02-19T01:44:52.731Z,4.00
2019-02-19T01:45:57.468Z,3.55
2019-02-19T01:47:01.981Z,4.37
2019-02-19T01:48:06.495Z,3.55
2019-02-19T01:49:10.977Z,3.55
2019-02-19T01:50:15.428Z,4.75
2019-02-19T01:51:19.946Z,4.40
2019-02-19T01:52:24.419Z,4.20
2019-02-19T01:53:28.892Z,4.40
2019-02-19T01:54:33.363Z,3.70
2019-02-19T01:55:37.893Z,3.63
2019-02-19T01:56:42.618Z,2.97
2019-02-19T01:57:47.082Z,4.67
2019-02-19T01:58:51.725Z,3.77
2019-02-19T01:59:56.206Z,4.17
2019-02-19T02:01:00.663Z,4.00
2019-02-19T02:02:05.140Z,4.73
2019-02-19T02:03:09.608Z,3.80
2019-02-19T02:04:14.074Z,4.80
2019-02-19T02:05:18.575Z,3.80
2019-02-19T02:06:23.213Z,3.50
2019-02-19T02:07:27.683Z,4.90
2019-02-19T02:08:32.145Z,3.50
2019-02-19T02:09:36.741Z,4.45
2019-02-19T02:10:41.227Z,4.17
2019-02-19T02:11:45.776Z,6.40
2019-02-19T02:12:50.642Z,4.35
2019-02-19T02:13:55.181Z,4.83
2019-02-19T02:14:59.676Z,5.12
2019-02-19T02:16:04.214Z,3.90
2019-02-19T02:17:08.710Z,4.85
2019-02-19T02:18:13.233Z,3.52
2019-02-19T02:19:17.683Z,6.60
2019-02-19T02:20:22.171Z,4.22
2019-02-19T02:21:26.671Z,4.30
2019-02-19T02:22:31.159Z,4.85
2019-02-19T02:23:35.821Z,4.45
2019-02-19T02:24:40.438Z,5.62
2019-02-19T02:25:44.919Z,6.13
2019-02-19T02:26:49.671Z,5.43
2019-02-19T02:27:54.131Z,5.90
2019-02-19T02:28:58.632Z,6.03
2019-02-19T02:30:03.356Z,5.83
2019-02-19T02:31:07.926Z,5.12
2019-02-19T02:32:12.410Z,7.43
2019-02-19T02:33:16.866Z,5.08
2019-02-19T02:34:21.412Z,8.77
2019-02-19T02:35:25.895Z,6.90
2019-02-19T02:36:30.346Z,6.42
2019-02-19T02:37:34.811Z,5.83
2019-02-19T02:38:39.289Z,6.60
2019-02-19T02:39:43.792Z,6.50
2019-02-19T02:40:48.274Z,5.93
2019-02-19T02:41:52.746Z,6.67
2019-02-19T02:42:57.234Z,5.10
2019-02-19T02:44:02.045Z,9.47
2019-02-19T02:45:06.632Z,8.28
2019-02-19T02:46:12.740Z,8.40
2019-02-19T02:47:17.221Z,7.72
2019-02-19T02:48:21.689Z,5.00
2019-02-19T02:49:26.164Z,6.25
2019-02-19T02:50:30.813Z,6.42
2019-02-19T02:51:35.328Z,6.65
2019-02-19T02:52:39.893Z,5.25
2019-02-19T02:53:44.383Z,7.33
2019-02-19T02:54:48.861Z,6.35
2019-02-19T02:55:53.325Z,6.28
2019-02-19T02:56:57.792Z,6.40
2019-02-19T02:58:02.421Z,6.97
2019-02-19T02:59:06.950Z,9.00
2019-02-19T03:00:12.720Z,7.00
2019-02-19T03:01:17.179Z,6.60
2019-02-19T03:02:21.647Z,7.17
2019-02-19T03:03:26.123Z,7.90
2019-02-19T03:04:30.575Z,7.70
2019-02-19T03:05:36.794Z,7.55
2019-02-19T03:06:49.035Z,6.63
2019-02-19T03:07:55.160Z,6.97
2019-02-19T03:08:59.647Z,5.97
2019-02-19T03:10:05.215Z,7.47
2019-02-19T03:11:09.674Z,7.20
2019-02-19T03:12:14.182Z,7.15
2019-02-19T03:13:18.679Z,7.27
2019-02-19T03:14:23.145Z,6.97
2019-02-19T03:15:27.614Z,6.78
2019-02-19T03:16:32.069Z,7.05
2019-02-19T03:17:36.581Z,7.12
2019-02-19T03:18:41.122Z,7.80
2019-02-19T03:19:45.588Z,7.30
2019-02-19T03:20:50.044Z,6.90
2019-02-19T03:21:54.511Z,6.58
2019-02-19T03:22:58.981Z,6.78
2019-02-19T03:24:05.093Z,6.90
2019-02-19T03:25:09.569Z,6.23
2019-02-19T03:26:14.023Z,7.23
2019-02-19T03:27:18.508Z,5.47
2019-02-19T03:28:23.063Z,4.90
2019-02-19T03:29:27.584Z,5.90
2019-02-19T03:30:32.053Z,7.63
2019-02-19T03:31:36.602Z,6.93
2019-02-19T03:32:41.087Z,6.77
2019-02-19T03:33:45.831Z,5.90
2019-02-19T03:34:50.313Z,5.17
2019-02-19T03:35:54.760Z,9.67
2019-02-19T03:36:59.223Z,7.12
2019-02-19T03:38:03.705Z,7.03
2019-02-19T03:39:08.203Z,5.17
2019-02-19T03:40:12.659Z,5.58
2019-02-19T03:41:17.184Z,6.03
2019-02-19T03:42:21.931Z,5.60
2019-02-19T03:43:26.414Z,5.27
2019-02-19T03:44:30.979Z,4.95
2019-02-19T03:45:35.648Z,4.97
2019-02-19T03:46:40.129Z,5.62
2019-02-19T03:47:44.655Z,5.30
2019-02-19T03:48:49.138Z,6.25
2019-02-19T03:49:53.606Z,5.62
2019-02-19T03:50:58.503Z,5.72
2019-02-19T03:52:02.981Z,5.20
2019-02-19T03:53:07.586Z,6.00
2019-02-19T03:54:12.059Z,5.53
2019-02-19T03:55:16.576Z,6.12
2019-02-19T03:56:21.110Z,6.20
2019-02-19T03:57:25.573Z,6.17
2019-02-19T03:58:30.038Z,4.27
2019-02-19T03:59:34.599Z,5.97
2019-02-19T04:00:39.157Z,5.42
2019-02-19T04:01:43.780Z,5.27
2019-02-19T04:02:48.329Z,6.22
2019-02-19T04:03:52.886Z,5.17
2019-02-19T04:04:57.411Z,5.47
2019-02-19T04:06:02.025Z,4.67
2019-02-19T04:07:06.585Z,4.83
2019-02-19T04:08:11.043Z,6.17
2019-02-19T04:09:15.509Z,5.10
2019-02-19T04:10:20.001Z,4.97
2019-02-19T04:11:24.528Z,5.00
2019-02-19T04:12:29.031Z,7.20
2019-02-19T04:13:33.504Z,6.07
2019-02-19T04:14:38.044Z,5.87
2019-02-19T04:15:42.585Z,5.62
2019-02-19T04:16:48.931Z,6.62
2019-02-19T04:17:54.423Z,5.25
2019-02-19T04:18:58.894Z,5.50
2019-02-19T04:20:03.991Z,5.50
2019-02-19T04:21:08.546Z,5.72
2019-02-19T04:22:13.036Z,5.40
2019-02-19T04:23:17.514Z,6.35
2019-02-19T04:24:22.012Z,6.15
2019-02-19T04:25:26.463Z,5.83
2019-02-19T04:26:30.941Z,6.28
2019-02-19T04:27:35.473Z,5.83
2019-02-19T04:28:40.000Z,7.77
2019-02-19T04:29:44.489Z,5.33
2019-02-19T04:30:49.041Z,5.93
2019-02-19T04:31:53.521Z,6.67
2019-02-19T04:32:58.003Z,6.70
2019-02-19T04:34:02.551Z,5.67
2019-02-19T04:35:07.247Z,5.70
2019-02-19T04:36:11.728Z,6.33
2019-02-19T04:37:16.217Z,5.47
2019-02-19T04:38:20.684Z,5.07
2019-02-19T04:39:25.234Z,6.17
2019-02-19T04:40:29.880Z,6.37
2019-02-19T04:41:34.409Z,6.60
2019-02-19T04:42:38.895Z,6.53
2019-02-19T04:43:43.355Z,4.77
2019-02-19T04:44:47.841Z,7.87
2019-02-19T04:45:52.329Z,5.97
2019-02-19T04:46:56.804Z,4.67
2019-02-19T04:48:01.314Z,6.37
2019-02-19T04:49:05.829Z,4.47
2019-02-19T04:50:10.386Z,6.45
2019-02-19T04:51:14.845Z,4.65
2019-02-19T04:52:19.315Z,5.42
2019-02-19T04:53:23.799Z,4.33
2019-02-19T04:54:28.347Z,7.75
2019-02-19T04:55:32.818Z,5.90
2019-02-19T04:56:37.325Z,6.20
2019-02-19T04:57:41.798Z,5.28
2019-02-19T04:58:46.337Z,4.80
2019-02-19T04:59:50.821Z,5.37
2019-02-19T05:00:55.518Z,5.15
2019-02-19T05:02:00.158Z,5.60
2019-02-19T05:03:04.990Z,7.73
2019-02-19T05:04:09.451Z,5.10
2019-02-19T05:05:14.075Z,4.27
2019-02-19T05:06:18.552Z,4.17
2019-02-19T05:07:23.045Z,5.17
2019-02-19T05:08:27.517Z,10.17
2019-02-19T05:09:31.992Z,3.83
2019-02-19T05:10:36.458Z,4.67
2019-02-19T05:11:40.919Z,4.40
2019-02-19T05:12:45.390Z,5.10
2019-02-19T05:13:49.853Z,7.43
2019-02-19T05:14:54.354Z,4.20
2019-02-19T05:15:58.841Z,4.23
2019-02-19T05:17:03.306Z,5.97
2019-02-19T05:18:07.764Z,4.30
2019-02-19T05:19:12.284Z,4.40
2019-02-19T05:20:16.753Z,4.85
2019-02-19T05:21:21.205Z,3.70
2019-02-19T05:22:25.685Z,3.93
2019-02-19T05:23:30.147Z,6.37
2019-02-19T05:24:34.611Z,4.78
2019-02-19T05:25:39.169Z,4.87
2019-02-19T05:26:43.703Z,4.67
2019-02-19T05:27:48.171Z,6.37
2019-02-19T05:28:52.651Z,3.60
2019-02-19T05:29:57.106Z,4.78
2019-02-19T05:31:01.669Z,5.00
2019-02-19T05:32:06.132Z,5.37
2019-02-19T05:33:12.249Z,5.35
2019-02-19T05:34:16.698Z,4.50
2019-02-19T05:35:21.199Z,5.40
2019-02-19T05:36:25.682Z,5.70
2019-02-19T05:37:30.182Z,4.60
2019-02-19T05:38:34.704Z,4.97
2019-02-19T05:39:39.175Z,5.80
2019-02-19T05:40:43.655Z,6.20
2019-02-19T05:41:48.125Z,5.58
2019-02-19T05:42:52.679Z,4.70
2019-02-19T05:43:57.144Z,6.63
2019-02-19T05:45:01.612Z,6.50
2019-02-19T05:46:06.241Z,6.27
2019-02-19T05:47:10.793Z,4.70
2019-02-19T05:48:15.276Z,4.93
2019-02-19T05:49:19.732Z,5.47
2019-02-19T05:50:24.209Z,6.10
2019-02-19T05:51:28.659Z,4.03
2019-02-19T05:52:33.132Z,5.23
2019-02-19T05:53:37.625Z,5.73
2019-02-19T05:54:42.098Z,5.43
2019-02-19T05:55:46.559Z,6.87
2019-02-19T05:56:51.114Z,5.07
2019-02-19T05:57:55.575Z,4.17
2019-02-19T05:59:00.074Z,3.85
2019-02-19T06:00:08.085Z,5.42
2019-02-19T06:01:12.556Z,4.58
2019-02-19T06:02:17.042Z,4.83
2019-02-19T06:03:21.601Z,5.60
2019-02-19T06:04:26.074Z,6.08
2019-02-19T06:05:30.521Z,6.23
2019-02-19T06:06:34.988Z,4.97
2019-02-19T06:07:39.451Z,7.43
2019-02-19T06:08:43.933Z,5.92
2019-02-19T06:09:48.393Z,5.27
2019-02-19T06:10:52.843Z,5.70
2019-02-19T06:11:56.995Z,5.20
2019-02-19T06:13:01.026Z,6.83
2019-02-19T06:14:05.090Z,5.35
2019-02-19T06:15:11.661Z,5.57
2019-02-19T06:16:16.117Z,4.60
2019-02-19T06:17:20.570Z,5.60
2019-02-19T06:18:25.082Z,6.28
2019-02-19T06:19:29.613Z,4.90
2019-02-19T06:20:34.162Z,5.60
2019-02-19T06:21:38.632Z,5.57
2019-02-19T06:22:43.094Z,5.93
2019-02-19T06:23:47.573Z,5.57
2019-02-19T06:24:52.038Z,5.07
2019-02-19T06:25:56.753Z,4.45
2019-02-19T06:27:01.355Z,5.47
2019-02-19T06:28:05.876Z,6.65
2019-02-19T06:29:10.357Z,5.92
2019-02-19T06:30:14.832Z,5.80
2019-02-19T06:31:19.309Z,4.78
2019-02-19T06:32:23.781Z,4.85
2019-02-19T06:33:28.243Z,5.50
2019-02-19T06:34:32.718Z,4.47
2019-02-19T06:35:37.182Z,6.78
2019-02-19T06:36:41.675Z,4.93
2019-02-19T06:37:46.253Z,4.37
2019-02-19T06:38:51.014Z,4.95
2019-02-19T06:39:55.507Z,6.55
2019-02-19T06:41:01.971Z,5.77
2019-02-19T06:42:06.665Z,5.67
2019-02-19T06:43:11.208Z,5.27
2019-02-19T06:44:15.652Z,5.17
2019-02-19T06:45:20.145Z,5.17
2019-02-19T06:46:24.677Z,4.08
2019-02-19T06:47:29.200Z,5.65
2019-02-19T06:48:33.665Z,5.45
2019-02-19T06:49:38.196Z,6.47
2019-02-19T06:50:42.721Z,5.83
2019-02-19T06:51:47.173Z,4.53
2019-02-19T06:52:51.647Z,4.40
2019-02-19T06:53:56.106Z,7.00
2019-02-19T06:55:00.575Z,5.28
2019-02-19T06:56:05.132Z,6.77
2019-02-19T06:57:09.605Z,5.57
2019-02-19T06:58:14.163Z,7.30
2019-02-19T06:59:20.160Z,7.25
2019-02-19T07:00:24.916Z,4.87
2019-02-19T07:01:47.268Z,6.75
2019-02-19T07:02:53.483Z,4.30
2019-02-19T07:04:02.762Z,6.13
2019-02-19T07:05:08.769Z,6.53
2019-02-19T07:06:13.247Z,5.17
2019-02-19T07:07:17.776Z,4.30
2019-02-19T07:08:22.273Z,6.93
2019-02-19T07:09:26.721Z,6.63
2019-02-19T07:10:31.191Z,7.90
2019-02-19T07:11:35.653Z,6.27
2019-02-19T07:12:40.120Z,6.13
2019-02-19T07:13:44.609Z,7.17
2019-02-19T07:14:49.110Z,6.30
2019-02-19T07:15:53.617Z,5.37
2019-02-19T07:16:58.158Z,5.85
2019-02-19T07:18:02.700Z,6.45
2019-02-19T07:19:07.232Z,5.28
2019-02-19T07:20:11.843Z,5.53
2019-02-19T07:21:16.311Z,6.42
2019-02-19T07:22:20.771Z,9.63
2019-02-19T07:23:25.262Z,6.08
2019-02-19T07:24:29.751Z,6.87
2019-02-19T07:25:34.225Z,6.15
2019-02-19T07:26:38.682Z,5.97
2019-02-19T07:27:43.157Z,5.77
2019-02-19T07:28:47.746Z,6.73
2019-02-19T07:29:52.265Z,6.50
2019-02-19T07:30:56.724Z,7.77
2019-02-19T07:32:01.191Z,5.40
2019-02-19T07:33:05.921Z,5.67
2019-02-19T07:34:10.432Z,7.43
2019-02-19T07:35:14.973Z,7.45
2019-02-19T07:36:19.456Z,6.97
2019-02-19T07:37:23.996Z,5.58
2019-02-19T07:38:28.507Z,5.33
2019-02-19T07:39:32.975Z,5.47
2019-02-19T07:40:37.468Z,10.73
2019-02-19T07:41:42.844Z,7.47
2019-02-19T07:42:47.376Z,6.17
2019-02-19T07:43:51.850Z,10.50
2019-02-19T07:44:56.315Z,7.90
2019-02-19T07:46:00.811Z,5.70
2019-02-19T07:47:05.267Z,6.20
2019-02-19T07:48:09.709Z,5.10
2019-02-19T07:49:14.172Z,5.00
2019-02-19T07:50:18.652Z,8.90
2019-02-19T07:51:23.165Z,6.03
2019-02-19T07:52:27.609Z,6.95
2019-02-19T07:53:32.087Z,5.15
2019-02-19T07:54:36.567Z,5.50
2019-02-19T07:55:41.022Z,7.33
2019-02-19T07:56:45.517Z,7.47
2019-02-19T07:57:50.040Z,7.45
2019-02-19T07:58:54.611Z,8.60
2019-02-19T07:59:59.081Z,7.37
2019-02-19T08:01:03.829Z,9.13
2019-02-19T08:02:08.399Z,8.23
2019-02-19T08:03:12.915Z,5.60
2019-02-19T08:04:17.441Z,10.47
2019-02-19T08:05:21.923Z,8.40
2019-02-19T08:06:26.366Z,6.70
2019-02-19T08:07:30.891Z,5.57
2019-02-19T08:08:35.355Z,12.30
2019-02-19T08:09:39.819Z,5.80
2019-02-19T08:10:44.296Z,7.22
2019-02-19T08:11:48.767Z,9.83
2019-02-19T08:12:53.277Z,7.62
2019-02-19T08:13:57.740Z,7.10
2019-02-19T08:15:03.401Z,6.07
2019-02-19T08:16:07.847Z,5.07
2019-02-19T08:17:12.390Z,4.50
2019-02-19T08:18:16.862Z,8.07
2019-02-19T08:19:21.457Z,7.92
2019-02-19T08:20:25.954Z,6.13
2019-02-19T08:21:30.462Z,7.27
2019-02-19T08:22:34.919Z,5.70
2019-02-19T08:23:39.434Z,6.75
2019-02-19T08:24:43.902Z,7.72
2019-02-19T08:25:48.420Z,9.30
2019-02-19T08:26:52.916Z,7.50
2019-02-19T08:27:57.466Z,8.20
2019-02-19T08:29:13.087Z,7.47
2019-02-19T08:30:11.117Z,7.90
2019-02-19T08:31:15.837Z,8.40
2019-02-19T08:32:20.359Z,6.87
2019-02-19T08:33:24.900Z,7.27
2019-02-19T08:34:29.449Z,7.23
2019-02-19T08:35:33.949Z,5.83
2019-02-19T08:36:38.500Z,5.27
2019-02-19T08:37:42.988Z,5.10
2019-02-19T08:38:47.503Z,5.55
2019-02-19T08:39:52.036Z,8.43
2019-02-19T08:40:56.759Z,8.20
2019-02-19T08:42:01.238Z,6.30
2019-02-19T08:43:05.747Z,5.70
2019-02-19T08:44:10.229Z,6.63
2019-02-19T08:45:14.703Z,5.17
2019-02-19T08:46:19.157Z,6.80
2019-02-19T08:47:23.699Z,5.05
2019-02-19T08:48:28.177Z,5.92
2019-02-19T08:49:32.664Z,4.72
2019-02-19T08:50:37.181Z,5.03
2019-02-19T08:51:41.667Z,5.35
2019-02-19T08:52:46.145Z,7.17
2019-02-19T08:53:50.616Z,4.40
2019-02-19T08:54:55.123Z,4.73
2019-02-19T08:55:59.775Z,4.87
2019-02-19T08:57:04.289Z,3.97
2019-02-19T08:58:08.777Z,5.77
2019-02-19T08:59:13.245Z,5.33
2019-02-19T09:00:17.710Z,5.03
2019-02-19T09:01:22.228Z,3.87
2019-02-19T09:02:26.689Z,5.20
2019-02-19T09:03:31.137Z,3.90
2019-02-19T09:04:35.707Z,4.37
2019-02-19T09:05:40.170Z,4.93
2019-02-19T09:06:44.769Z,3.90
2019-02-19T09:07:49.276Z,6.37
2019-02-19T09:08:53.752Z,3.87
2019-02-19T09:09:58.214Z,6.85
2019-02-19T09:11:02.679Z,4.43
2019-02-19T09:12:07.241Z,5.73
2019-02-19T09:13:11.737Z,4.30
2019-02-19T09:14:16.210Z,4.73
2019-02-19T09:15:20.666Z,4.47
2019-02-19T09:16:25.680Z,4.17
2019-02-19T09:17:30.377Z,5.47
2019-02-19T09:18:34.853Z,5.95
2019-02-19T09:19:39.618Z,6.83
2019-02-19T09:20:44.167Z,5.33
2019-02-19T09:21:48.714Z,6.83
2019-02-19T09:22:53.185Z,6.20
2019-02-19T09:23:58.535Z,4.78
2019-02-19T09:25:03.704Z,6.20
2019-02-19T09:26:08.222Z,4.55
2019-02-19T09:27:12.691Z,4.07
2019-02-19T09:28:17.256Z,6.63
2019-02-19T09:29:21.758Z,3.30
2019-02-19T09:30:26.289Z,5.27
2019-02-19T09:31:30.856Z,5.77
2019-02-19T09:32:35.325Z,5.07
2019-02-19T09:33:39.867Z,3.47
2019-02-19T09:34:44.329Z,3.17
2019-02-19T09:35:48.814Z,3.43
2019-02-19T09:36:53.286Z,5.30
2019-02-19T09:37:57.857Z,4.83
2019-02-19T09:39:02.391Z,4.70
2019-02-19T09:40:09.226Z,3.97
2019-02-19T09:41:13.688Z,3.60
2019-02-19T09:42:18.166Z,3.90
2019-02-19T09:43:22.642Z,4.53
2019-02-19T09:44:27.419Z,5.67
2019-02-19T09:45:32.358Z,3.77
2019-02-19T09:46:36.898Z,4.13
2019-02-19T09:47:41.371Z,4.03
2019-02-19T09:48:45.848Z,4.10
2019-02-19T09:49:50.429Z,9.45
2019-02-19T09:50:54.928Z,3.47
2019-02-19T09:51:59.456Z,4.40
2019-02-19T09:53:04.337Z,3.62
2019-02-19T09:54:08.816Z,4.55
2019-02-19T09:55:13.408Z,4.15
2019-02-19T09:56:17.940Z,6.08
2019-02-19T09:57:22.391Z,3.73
2019-02-19T09:58:26.855Z,3.98
2019-02-19T09:59:31.653Z,5.20
2019-02-19T10:00:36.500Z,3.50
2019-02-19T10:01:40.975Z,6.53
2019-02-19T10:02:45.510Z,3.73
2019-02-19T10:03:50.023Z,4.12
2019-02-19T10:04:54.508Z,3.30
2019-02-19T10:06:00.621Z,3.43
2019-02-19T10:07:05.162Z,4.23
2019-02-19T10:08:09.624Z,5.07
2019-02-19T10:09:14.085Z,3.97
2019-02-19T10:10:22.489Z,4.90
2019-02-19T10:11:26.966Z,3.47
2019-02-19T10:12:31.466Z,3.80
2019-02-19T10:13:35.982Z,5.20
2019-02-19T10:14:40.463Z,4.83
2019-02-19T10:15:44.938Z,4.60
2019-02-19T10:16:49.669Z,4.17
2019-02-19T10:17:54.677Z,2.85
2019-02-19T10:18:59.166Z,3.87
2019-02-19T10:20:04.176Z,3.65
2019-02-19T10:21:08.675Z,3.80
2019-02-19T10:22:13.208Z,3.90
2019-02-19T10:23:17.687Z,3.92
2019-02-19T10:24:22.170Z,3.30
2019-02-19T10:25:26.652Z,3.85
2019-02-19T10:26:31.145Z,3.83
2019-02-19T10:27:35.629Z,3.10
2019-02-19T10:28:40.102Z,3.80
2019-02-19T10:29:44.575Z,4.50
2019-02-19T10:30:49.095Z,3.05
2019-02-19T10:31:53.567Z,3.53
2019-02-19T10:32:58.055Z,4.37
2019-02-19T10:34:02.522Z,3.07
2019-02-19T10:35:09.164Z,5.13
2019-02-19T10:36:13.619Z,3.17
2019-02-19T10:37:18.098Z,3.53
2019-02-19T10:38:22.630Z,3.20
2019-02-19T10:39:27.173Z,3.60
2019-02-19T10:40:31.634Z,3.87
2019-02-19T10:41:36.122Z,2.90
2019-02-19T10:42:40.777Z,3.70
2019-02-19T10:43:45.254Z,3.80
2019-02-19T10:44:49.771Z,2.77
2019-02-19T10:45:54.245Z,2.77
2019-02-19T10:46:58.714Z,3.53
2019-02-19T10:48:03.185Z,3.37
2019-02-19T10:49:07.660Z,2.80
2019-02-19T10:50:12.324Z,3.50
2019-02-19T10:51:16.795Z,3.77
2019-02-19T10:52:21.311Z,3.53
2019-02-19T10:53:25.833Z,3.13
2019-02-19T10:54:30.299Z,2.60
2019-02-19T10:55:34.787Z,3.00
2019-02-19T10:56:39.281Z,3.00
2019-02-19T10:57:43.813Z,3.83
2019-02-19T10:58:48.298Z,2.73
2019-02-19T10:59:52.787Z,3.73
2019-02-19T11:00:57.363Z,2.57
2019-02-19T11:02:01.829Z,2.50
2019-02-19T11:03:06.335Z,4.53
2019-02-19T11:04:10.824Z,2.60
2019-02-19T11:05:15.363Z,3.77
2019-02-19T11:06:19.913Z,2.97
2019-02-19T11:07:24.486Z,3.33
2019-02-19T11:08:28.974Z,2.50
2019-02-19T11:09:33.588Z,3.70
2019-02-19T11:10:38.123Z,2.37
2019-02-19T11:11:42.653Z,2.63
2019-02-19T11:12:47.194Z,3.90
2019-02-19T11:13:51.678Z,3.20
2019-02-19T11:14:56.138Z,2.70
2019-02-19T11:16:00.652Z,2.53
2019-02-19T11:17:05.311Z,3.17
2019-02-19T11:18:09.786Z,3.17
2019-02-19T11:19:14.271Z,4.83
2019-02-19T11:20:20.610Z,3.20
2019-02-19T11:21:25.077Z,3.20
2019-02-19T11:22:29.587Z,2.90
2019-02-19T11:23:34.061Z,2.93
2019-02-19T11:24:38.523Z,3.20
2019-02-19T11:25:42.990Z,3.03
2019-02-19T11:26:47.468Z,3.43
2019-02-19T11:27:51.974Z,5.27
2019-02-19T11:28:56.492Z,3.83
2019-02-19T11:30:00.991Z,3.13
2019-02-19T11:31:05.586Z,4.10
2019-02-19T11:32:10.092Z,2.30
2019-02-19T11:33:14.644Z,2.20
2019-02-19T11:34:19.163Z,2.90
2019-02-19T11:35:23.644Z,3.13
2019-02-19T11:36:28.125Z,2.67
2019-02-19T11:37:32.686Z,2.50
2019-02-19T11:38:37.186Z,2.50
2019-02-19T11:39:41.731Z,2.43
2019-02-19T11:40:46.216Z,2.83
2019-02-19T11:41:50.757Z,3.17
2019-02-19T11:42:55.245Z,2.73
2019-02-19T11:43:59.773Z,2.70
2019-02-19T11:45:06.739Z,3.10
2019-02-19T11:46:11.226Z,2.90
2019-02-19T11:47:15.699Z,3.25
2019-02-19T11:48:20.174Z,3.10
2019-02-19T11:49:24.640Z,4.97
2019-02-19T11:50:29.152Z,3.08
2019-02-19T11:51:33.674Z,3.40
2019-02-19T11:52:38.398Z,3.10
2019-02-19T11:53:42.889Z,3.20
2019-02-19T11:54:47.380Z,2.50
2019-02-19T11:55:51.846Z,2.40
2019-02-19T11:56:56.343Z,2.62
2019-02-19T11:58:00.816Z,3.27
2019-02-19T11:59:05.303Z,3.67
2019-02-19T12:00:14.554Z,5.25
2019-02-19T12:01:19.037Z,3.70
2019-02-19T12:02:23.525Z,2.40
2019-02-19T12:03:27.989Z,3.37
2019-02-19T12:04:32.460Z,5.17
2019-02-19T12:05:36.935Z,3.63
2019-02-19T12:06:41.395Z,3.90
2019-02-19T12:07:45.884Z,2.80
2019-02-19T12:08:50.410Z,2.70
2019-02-19T12:09:54.900Z,3.65
2019-02-19T12:10:59.439Z,3.40
2019-02-19T12:12:03.915Z,2.67
2019-02-19T12:13:08.463Z,3.50
2019-02-19T12:14:13.390Z,2.70
2019-02-19T12:15:19.206Z,4.42
2019-02-19T12:16:23.910Z,2.85
2019-02-19T12:17:28.370Z,3.58
2019-02-19T12:18:32.838Z,3.45
2019-02-19T12:19:37.289Z,2.77
2019-02-19T12:20:41.759Z,3.33
2019-02-19T12:21:46.326Z,3.90
2019-02-19T12:22:50.971Z,4.25
2019-02-19T12:23:55.732Z,4.17
2019-02-19T12:25:00.280Z,3.50
2019-02-19T12:26:04.744Z,3.03
2019-02-19T12:27:09.236Z,4.47
2019-02-19T12:28:13.704Z,2.27
2019-02-19T12:29:18.330Z,3.17
2019-02-19T12:30:22.814Z,3.10
2019-02-19T12:31:27.321Z,2.90
2019-02-19T12:32:31.802Z,2.67
2019-02-19T12:33:36.271Z,3.13
2019-02-19T12:34:40.765Z,4.67
2019-02-19T12:35:45.244Z,2.73
2019-02-19T12:36:49.775Z,3.07
2019-02-19T12:37:54.345Z,3.73
2019-02-19T12:38:58.845Z,3.43
2019-02-19T12:40:03.548Z,2.80
2019-02-19T12:41:08.023Z,2.50
2019-02-19T12:42:12.503Z,3.50
2019-02-19T12:43:17.002Z,3.43
2019-02-19T12:44:21.487Z,2.67
2019-02-19T12:45:25.962Z,4.43
2019-02-19T12:46:30.423Z,4.50
2019-02-19T12:47:34.891Z,3.57
2019-02-19T12:48:39.375Z,3.50
2019-02-19T12:49:43.833Z,2.75
2019-02-19T12:50:48.303Z,4.10
2019-02-19T12:51:52.796Z,3.12
2019-02-19T12:52:57.331Z,2.58
2019-02-19T12:54:01.837Z,3.37
2019-02-19T12:55:07.384Z,3.40
2019-02-19T12:56:11.904Z,3.33
2019-02-19T12:57:16.377Z,4.67
2019-02-19T12:58:20.844Z,5.77
2019-02-19T12:59:25.337Z,3.03
2019-02-19T13:00:29.801Z,4.40
2019-02-19T13:01:34.265Z,4.37
2019-02-19T13:02:38.808Z,3.80
2019-02-19T13:03:43.311Z,3.50
2019-02-19T13:04:47.780Z,3.47
2019-02-19T13:05:52.322Z,3.97
2019-02-19T13:06:56.864Z,4.57
2019-02-19T13:08:01.331Z,2.65
2019-02-19T13:09:06.294Z,3.17
2019-02-19T13:10:11.814Z,2.60
2019-02-19T13:11:16.354Z,3.27
2019-02-19T13:12:20.905Z,4.23
2019-02-19T13:13:25.380Z,3.33
2019-02-19T13:14:29.901Z,2.87
2019-02-19T13:15:34.409Z,3.40
2019-02-19T13:16:38.925Z,3.07
2019-02-19T13:17:43.407Z,7.65
2019-02-19T13:18:47.973Z,3.00
2019-02-19T13:19:52.562Z,2.67
2019-02-19T13:20:57.074Z,1.90
2019-02-19T13:22:01.559Z,2.95
2019-02-19T13:23:06.068Z,3.35
2019-02-19T13:24:10.538Z,2.87
2019-02-19T13:25:15.048Z,3.60
2019-02-19T13:26:19.533Z,2.97
2019-02-19T13:27:24.045Z,3.30
2019-02-19T13:28:28.501Z,2.73
2019-02-19T13:29:33.055Z,3.00
2019-02-19T13:30:37.657Z,2.20
2019-02-19T13:31:42.199Z,3.13
2019-02-19T13:32:46.753Z,2.33
2019-02-19T13:33:51.201Z,2.80
2019-02-19T13:34:55.679Z,4.70
2019-02-19T13:36:00.184Z,3.42
2019-02-19T13:37:04.818Z,3.37
2019-02-19T13:38:09.302Z,2.55
2019-02-19T13:39:13.784Z,4.83
2019-02-19T13:40:20.003Z,2.10
2019-02-19T13:41:24.492Z,3.87
2019-02-19T13:42:28.983Z,1.93
2019-02-19T13:43:33.519Z,2.60
2019-02-19T13:44:38.241Z,3.93
2019-02-19T13:45:42.732Z,4.07
2019-02-19T13:46:47.221Z,1.87
2019-02-19T13:47:51.723Z,2.40
2019-02-19T13:48:56.221Z,3.27
2019-02-19T13:50:00.681Z,2.15
2019-02-19T13:51:05.170Z,3.05
2019-02-19T13:52:11.378Z,1.77
2019-02-19T13:53:26.522Z,2.70
2019-02-19T13:54:31.036Z,2.10
2019-02-19T13:55:37.389Z,2.20
2019-02-19T13:56:41.867Z,2.77
2019-02-19T13:57:46.350Z,2.23
2019-02-19T13:58:50.892Z,2.80
2019-02-19T13:59:55.438Z,2.85
2019-02-19T14:01:00.011Z,2.17
2019-02-19T14:02:04.626Z,1.80
2019-02-19T14:03:09.238Z,2.37
2019-02-19T14:04:13.697Z,3.03
2019-02-19T14:05:18.190Z,2.77
2019-02-19T14:06:22.671Z,2.30
2019-02-19T14:07:27.136Z,6.33
2019-02-19T14:08:31.602Z,1.90
2019-02-19T14:09:36.112Z,4.33
2019-02-19T14:10:40.605Z,3.17
2019-02-19T14:11:45.081Z,3.10
2019-02-19T14:12:49.560Z,2.77
2019-02-19T14:13:55.798Z,2.17
2019-02-19T14:15:01.931Z,3.37
2019-02-19T14:16:13.992Z,2.92
2019-02-19T14:17:18.602Z,3.35
2019-02-19T14:18:41.071Z,2.20
2019-02-19T14:19:47.273Z,2.17
2019-02-19T14:21:11.687Z,2.93